Fallon Naval Air Station /Van Voorhis Field
KNFL : now visible

Airfield :











YOU CAN JOIN US ON...

 
LOGIN :

Register | Disclaimer

   EN    FR    IT 

 









Legend :    VFR   Marginal VFR   IFR   Intensive IFR   Very Intensive IFR
Visi :
Ceiling :
>= 8 km
>= 3000ft
5 to 8 km
1000 to 3000 ft
1500m to 5 km
500 to 1000 ft
800 to 1500m
200 to 500 ft
< 800m
< 200 ft
Symbols :   Thunderstorms  Fog  Heavy snow  Heavy precipitations  Wind > 20 kt







- Airport Elevation : 3934 ft


KNFL - Fallon Naval Air Station /Van Voorhis Field

CURRENT METAR :
  • 200956Z AUTO 20005KT 10SM CLR 04/01 A3005 RMK AO2 SLP143 T00390006

EXPIRED METARs :
  • 200856Z AUTO 28003KT 10SM CLR 04/01 A3005 RMK AO2 SLP144 T00440006 51009
  • 200756Z AUTO 29004KT 10SM FEW070 06/02 A3004 RMK AO2 SLP143 T00610017 401720044

TAF TAF KNFL
Valid from the 20 at 07:00 until the 21 at 07:00 UTC


2007/2107 VRB06KT 9999 SCT060 BKN120 BKN250 651206 QNH2998INS
FM202100 36009KT 9999 FEW120 FEW250 600000 QNH2996INS
FM210300 VRB06KT 9999 FEW120 FEW250 QNH2998INS AUTOMATED SENSOR METWATCH 2007 TIL 2015 T04/2012Z T18/2023Z FS30154
No reported NOTAMs for that airfield.



MET'MAP, your aeronautical weather chart ! - Copyright ORBIFLY December 2007 - Disclaimer

ORBIFLY MET'MAP TEAM :

Programming & Development : Alexandra Zaïnal
Concept & Development : Baudouin d'Aumeries
Co-Development & Prog : Marc-Olivier Méhu
Technical & hardware support : Manuel Goepfert

Contact : metmap@orbifly.com




SOURCES & CREDITS :

   NOAA       Earth
Advisory